Time;durP1;ratioP1;P1;durP2;ratioP2;P2;SDS_P1;SDS_P2;PMS_P1;PMS_P2;Temp;Humidity;BMP_temperature;BMP_pressure;BME280_temperature;BME280_humidity;BME280_pressure;Samples;Min_cycle;Max_cycle;Signal;HPM_P1;HPM_P2
2023/01/01 00:02:02;;;;;;;23.13;9.00;;;;;;;-144.47;59.93;52800.47;5008530;28;20013;-70
2023/01/01 00:04:27;;;;;;;19.40;8.30;;;;;;;-144.47;59.78;52766.72;5009156;28;20264;-68
2023/01/01 00:06:53;;;;;;;18.80;8.60;;;;;;;-144.47;59.10;52752.81;5006036;28;20029;-67
2023/01/01 00:12:02;;;;;;;16.23;6.30;;;;;;;-144.47;58.56;52776.66;5006934;28;20518;-68
2023/01/01 00:14:28;;;;;;;20.58;6.78;;;;;;;-144.47;58.44;52782.59;5005596;28;20033;-69
2023/01/01 00:16:55;;;;;;;16.85;5.45;;;;;;;-144.47;58.07;52774.66;5007738;28;20030;-65
2023/01/01 00:19:21;;;;;;;16.15;5.82;;;;;;;-144.47;58.12;52756.78;5008721;28;20392;-68
2023/01/01 00:21:46;;;;;;;14.68;5.00;;;;;;;-144.47;58.08;52784.59;5008463;28;20033;-69
2023/01/01 00:24:12;;;;;;;10.15;4.35;;;;;;;-144.47;58.16;52808.44;5004243;28;20033;-65
2023/01/01 00:26:37;;;;;;;12.02;4.55;;;;;;;-144.47;58.17;52770.69;5008344;28;20033;-67
2023/01/01 00:29:03;;;;;;;12.90;4.20;;;;;;;-144.47;57.88;52786.56;5007346;28;20027;-65
2023/01/01 00:31:29;;;;;;;16.23;5.13;;;;;;;-144.47;57.93;52792.53;5006865;28;20488;-65
2023/01/01 00:33:55;;;;;;;17.02;5.30;;;;;;;-144.47;57.88;52766.72;4999817;28;20029;-64
2023/01/01 00:36:22;;;;;;;13.23;4.95;;;;;;;-144.47;57.93;52768.69;5000652;28;20168;-68
2023/01/01 00:38:47;;;;;;;15.45;3.50;;;;;;;-144.47;58.32;52766.72;5005714;28;20113;-67
2023/01/01 00:41:14;;;;;;;11.18;4.55;;;;;;;-144.47;58.53;52782.59;5007269;28;20638;-65
2023/01/01 00:43:40;;;;;;;9.48;3.45;;;;;;;-144.47;58.99;52788.56;5004904;28;20037;-68
2023/01/01 00:46:06;;;;;;;8.35;3.17;;;;;;;-144.47;59.15;52790.56;5008869;28;20204;-66
2023/01/01 00:48:32;;;;;;;14.77;4.30;;;;;;;-144.47;59.28;52792.53;5004115;28;20060;-66
2023/01/01 00:50:58;;;;;;;10.68;3.75;;;;;;;-144.47;59.61;52778.63;5010486;28;20403;-67
2023/01/01 00:53:24;;;;;;;9.93;3.47;;;;;;;-144.47;59.92;52794.53;5007963;28;20531;-68
2023/01/01 00:55:51;;;;;;;11.95;4.88;;;;;;;-144.47;60.34;52776.66;5008918;28;20113;-66
2023/01/01 00:58:18;;;;;;;13.52;4.43;;;;;;;-144.47;60.76;52800.47;5006026;28;20036;-68
2023/01/01 01:00:44;;;;;;;11.50;5.60;;;;;;;-144.47;61.13;52788.56;5014602;28;20044;-68
2023/01/01 01:03:26;;;;;;;11.55;4.20;;;;;;;-144.47;61.39;52780.63;5010930;28;20104;-68
2023/01/01 01:06:01;;;;;;;7.22;3.60;;;;;;;-144.47;61.81;52808.44;5005713;28;20036;-68
2023/01/01 01:08:27;;;;;;;8.55;4.60;;;;;;;-144.47;62.15;52774.66;5004947;28;20026;-67
2023/01/01 01:10:53;;;;;;;8.25;2.90;;;;;;;-144.47;62.26;52784.59;5010699;28;20400;-67
2023/01/01 01:13:19;;;;;;;7.68;3.13;;;;;;;-144.47;62.45;52776.66;5010074;28;20044;-65
2023/01/01 01:15:44;;;;;;;6.60;3.20;;;;;;;-144.47;62.48;52798.50;5012002;28;20022;-67
2023/01/01 01:18:10;;;;;;;7.97;3.03;;;;;;;-144.47;62.48;52804.44;5011134;28;20032;-65
2023/01/01 01:20:35;;;;;;;7.72;3.38;;;;;;;-144.47;62.46;52794.53;5012595;28;20053;-67
2023/01/01 01:23:01;;;;;;;18.42;4.45;;;;;;;-144.47;62.94;52794.53;5011764;28;20424;-69
2023/01/01 01:25:26;;;;;;;8.68;3.60;;;;;;;-144.47;62.90;52794.53;5012717;28;20065;-66
2023/01/01 01:27:51;;;;;;;5.50;2.60;;;;;;;-144.47;63.18;52776.66;5007742;28;20061;-70
2023/01/01 01:30:17;;;;;;;9.48;3.08;;;;;;;-144.47;62.68;52780.63;5012422;28;20029;-64
2023/01/01 01:32:42;;;;;;;13.45;3.80;;;;;;;-144.47;62.73;52786.56;5012775;28;20054;-67
2023/01/01 01:35:07;;;;;;;8.50;3.33;;;;;;;-144.47;62.70;52772.69;5012025;28;20056;-68
2023/01/01 01:37:33;;;;;;;13.15;3.50;;;;;;;-144.47;62.57;52794.53;5010593;28;20495;-69
2023/01/01 01:39:58;;;;;;;13.95;3.53;;;;;;;-144.47;62.27;52784.59;5012144;28;20026;-66
2023/01/01 01:42:24;;;;;;;8.07;2.60;;;;;;;-144.47;61.73;52802.47;5009370;28;20060;-68
2023/01/01 01:44:59;;;;;;;8.27;2.75;;;;;;;-144.47;61.42;52810.41;5011766;28;20030;-68
2023/01/01 01:47:51;;;;;;;9.10;3.28;;;;;;;-144.47;60.75;52764.72;5006826;28;20029;-67
2023/01/01 01:50:33;;;;;;;6.88;2.88;;;;;;;-144.47;60.27;52806.44;5012047;28;20395;-68
2023/01/01 01:53:05;;;;;;;6.60;2.22;;;;;;;-144.47;59.95;52814.38;5011559;28;20546;-69
2023/01/01 01:55:34;;;;;;;9.63;3.10;;;;;;;-144.47;59.61;52792.53;5011949;28;20086;-67
2023/01/01 01:58:00;;;;;;;7.25;3.10;;;;;;;-144.47;59.88;52790.56;5008889;28;20108;-68
2023/01/01 02:00:26;;;;;;;11.60;3.10;;;;;;;-144.47;59.83;52802.47;5011875;28;20026;-68
2023/01/01 02:03:08;;;;;;;9.05;3.47;;;;;;;-144.47;59.82;52814.38;5011852;28;20476;-65
2023/01/01 02:05:34;;;;;;;10.10;2.80;;;;;;;-144.47;60.23;52772.69;5005461;28;20116;-68
2023/01/01 02:08:02;;;;;;;12.80;3.03;;;;;;;-144.47;60.39;52814.38;5010106;28;20136;-65
2023/01/01 02:10:28;;;;;;;9.07;3.70;;;;;;;-144.47;60.84;52782.59;5011793;28;20037;-66
2023/01/01 02:12:54;;;;;;;7.88;3.10;;;;;;;-144.47;61.01;52782.59;5010833;28;20344;-67
2023/01/01 02:15:24;;;;;;;9.13;3.25;;;;;;;-144.47;61.30;52786.56;5011594;28;20032;-68
2023/01/01 02:18:10;;;;;;;8.18;3.33;;;;;;;-144.47;61.51;52792.53;5010100;28;20499;-66
2023/01/01 02:20:47;;;;;;;8.10;3.10;;;;;;;-144.47;61.79;52788.56;5011022;28;20026;-68
2023/01/01 02:23:27;;;;;;;7.68;4.05;;;;;;;-144.47;61.96;52768.69;5009279;28;20523;-68
2023/01/01 02:26:20;;;;;;;8.30;3.38;;;;;;;-144.47;62.01;52794.53;5011756;28;20510;-66
2023/01/01 02:28:52;;;;;;;10.48;3.72;;;;;;;-144.47;62.23;52796.50;5009138;28;20522;-67
2023/01/01 02:31:22;;;;;;;7.85;2.50;;;;;;;-144.47;62.41;52804.44;5010273;28;20032;-66
2023/01/01 02:33:51;;;;;;;9.60;2.97;;;;;;;-144.47;62.63;52786.56;5007429;28;20033;-68
2023/01/01 02:36:18;;;;;;;12.27;2.95;;;;;;;-144.47;62.86;52788.56;5010148;28;20025;-68
2023/01/01 02:38:49;;;;;;;10.43;2.55;;;;;;;-144.47;63.02;52784.59;5010275;28;20036;-68
2023/01/01 02:41:27;;;;;;;5.97;2.97;;;;;;;-144.47;63.35;52800.47;5010972;28;20034;-68
2023/01/01 02:43:53;;;;;;;9.80;2.60;;;;;;;-144.47;63.50;52832.25;5008705;28;20107;-69
2023/01/01 02:46:19;;;;;;;12.35;3.13;;;;;;;-144.47;63.86;52790.56;5008204;28;20046;-68
2023/01/01 02:48:47;;;;;;;8.15;2.80;;;;;;;-144.47;64.02;52796.50;5009645;28;20029;-67
2023/01/01 02:51:38;;;;;;;8.73;2.80;;;;;;;-144.47;64.37;52794.53;5010281;28;20026;-69
2023/01/01 02:54:16;;;;;;;7.25;2.67;;;;;;;-144.47;64.62;52808.44;5002946;28;20263;-67
2023/01/01 02:56:47;;;;;;;6.03;2.72;;;;;;;-144.47;65.04;52796.50;5008412;28;20053;-68
2023/01/01 03:02:18;;;;;;;7.53;2.60;;;;;;;-144.47;65.67;52812.41;5005835;28;20124;-65
2023/01/01 03:04:46;;;;;;;8.40;2.65;;;;;;;-144.47;65.86;52814.38;5009890;28;20029;-69
2023/01/01 03:07:30;;;;;;;10.70;2.75;;;;;;;-144.47;66.24;52816.38;5001308;28;20026;-68
2023/01/01 03:10:03;;;;;;;7.38;2.35;;;;;;;-144.47;66.48;52824.31;5010109;28;20109;-65
2023/01/01 03:12:56;;;;;;;9.95;2.75;;;;;;;-144.47;66.51;52826.31;5015297;28;20065;-67
2023/01/01 03:15:36;;;;;;;7.78;3.10;;;;;;;-144.47;67.12;52786.56;5012532;28;20110;-67
2023/01/01 03:18:07;;;;;;;10.00;3.00;;;;;;;-144.47;67.46;52786.56;5000505;28;20531;-65
2023/01/01 03:20:39;;;;;;;16.58;3.08;;;;;;;-144.47;67.80;52822.31;5010693;28;20021;-69
2023/01/01 03:23:09;;;;;;;10.10;2.83;;;;;;;-144.47;67.86;52802.47;5010915;28;20029;-64
2023/01/01 03:25:42;;;;;;;10.38;2.88;;;;;;;-144.47;67.95;52806.44;5010099;28;20483;-65
2023/01/01 03:28:17;;;;;;;14.55;3.80;;;;;;;-144.47;68.10;52836.22;5008903;28;20083;-68
2023/01/01 03:30:45;;;;;;;8.50;3.67;;;;;;;-144.47;68.17;52798.50;5010954;28;20021;-67
2023/01/01 03:33:17;;;;;;;10.55;3.00;;;;;;;-144.47;68.02;52808.44;5009844;28;20022;-68
2023/01/01 03:35:49;;;;;;;6.75;3.05;;;;;;;-144.47;68.44;52808.44;5010636;28;20044;-67
2023/01/01 03:38:29;;;;;;;10.05;3.25;;;;;;;-144.47;68.52;52806.44;5009110;28;20026;-67
2023/01/01 03:41:19;;;;;;;10.82;3.47;;;;;;;-144.47;68.31;52804.44;5010920;28;20041;-68
2023/01/01 03:44:00;;;;;;;12.60;3.60;;;;;;;-144.47;68.33;52822.31;5009802;28;20026;-64
2023/01/01 03:46:31;;;;;;;9.05;3.97;;;;;;;-144.47;68.08;52810.41;5010190;28;20022;-66
2023/01/01 03:48:57;;;;;;;9.88;3.80;;;;;;;-144.47;68.08;52814.38;5008743;28;20076;-66
2023/01/01 03:51:32;;;;;;;8.55;3.65;;;;;;;-144.47;68.06;52804.44;5008638;28;20026;-69
2023/01/01 03:54:05;;;;;;;12.57;4.03;;;;;;;-144.47;67.99;52828.28;5006408;28;20095;-67
2023/01/01 03:56:39;;;;;;;9.57;3.60;;;;;;;-144.47;67.60;52808.44;5007302;28;20021;-67
2023/01/01 03:59:45;;;;;;;10.85;3.55;;;;;;;-144.47;67.37;52832.25;5009594;28;20397;-67
2023/01/01 04:02:15;;;;;;;8.07;4.00;;;;;;;-144.47;67.32;52806.44;4984678;28;20475;-67
2023/01/01 04:04:40;;;;;;;6.75;3.42;;;;;;;-144.47;67.28;52800.47;5008691;28;20026;-68
2023/01/01 04:07:06;;;;;;;12.02;4.15;;;;;;;-144.47;67.25;52816.38;5018871;22;20025;-67
2023/01/01 04:09:36;;;;;;;8.20;3.55;;;;;;;-144.47;67.64;52826.31;4987290;28;20038;-67
2023/01/01 04:12:05;;;;;;;7.35;3.47;;;;;;;-144.47;67.90;52808.44;4986853;28;20026;-68
2023/01/01 04:14:36;;;;;;;9.35;3.63;;;;;;;-144.47;67.86;52796.50;4988353;28;20034;-68
2023/01/01 04:17:03;;;;;;;10.45;3.70;;;;;;;-144.47;67.93;52816.38;4987857;28;20034;-67
2023/01/01 04:19:29;;;;;;;7.93;3.42;;;;;;;-144.47;68.00;52802.47;4988447;28;20073;-65
2023/01/01 04:21:55;;;;;;;12.60;3.80;;;;;;;-144.47;68.19;52824.31;4988252;28;20492;-67
2023/01/01 04:24:21;;;;;;;8.38;3.38;;;;;;;-144.47;68.12;52796.50;4985124;28;20026;-66
2023/01/01 04:26:47;;;;;;;8.20;3.33;;;;;;;-144.47;68.43;52814.38;4986951;28;20018;-65
2023/01/01 04:29:12;;;;;;;11.02;4.05;;;;;;;-144.47;68.75;52828.28;4988417;28;20081;-67
2023/01/01 04:31:38;;;;;;;8.70;3.60;;;;;;;-144.47;68.85;52806.44;4986935;28;20081;-67
2023/01/01 04:34:03;;;;;;;9.35;3.42;;;;;;;-144.47;69.05;52806.44;4987292;28;20033;-68
2023/01/01 04:36:29;;;;;;;10.98;3.70;;;;;;;-144.47;69.08;52806.44;4987502;28;20101;-64
2023/01/01 04:38:54;;;;;;;9.23;3.35;;;;;;;-144.47;69.42;52800.47;4988377;28;20053;-67
2023/01/01 04:41:19;;;;;;;7.93;3.42;;;;;;;-144.47;69.41;52804.44;4988069;28;20116;-66
2023/01/01 04:43:49;;;;;;;10.32;3.72;;;;;;;-144.47;69.89;52804.44;4987501;28;20037;-66
2023/01/01 04:46:15;;;;;;;8.88;3.83;;;;;;;-144.47;69.92;52826.31;4991991;28;20049;-69
2023/01/01 04:48:41;;;;;;;9.48;4.00;;;;;;;-144.47;70.07;52812.41;4987062;28;20037;-66
2023/01/01 04:51:10;;;;;;;9.82;3.55;;;;;;;-144.47;70.01;52812.41;4992241;28;20022;-67
2023/01/01 04:53:35;;;;;;;9.23;3.47;;;;;;;-144.47;69.80;52824.31;4992220;28;20029;-65
2023/01/01 04:56:06;;;;;;;9.27;3.75;;;;;;;-144.47;69.67;52814.38;4991841;28;20118;-66
2023/01/01 04:58:32;;;;;;;12.00;3.95;;;;;;;-144.47;69.77;52812.41;4989827;28;20030;-67
2023/01/01 05:00:58;;;;;;;8.35;3.80;;;;;;;-144.47;70.02;52800.47;4985662;28;20065;-65
2023/01/01 05:03:23;;;;;;;8.90;3.60;;;;;;;-144.47;70.15;52804.44;4990884;28;20018;-67
2023/01/01 05:06:09;;;;;;;8.85;3.33;;;;;;;-144.47;70.59;52816.38;4991483;28;20022;-65
2023/01/01 05:08:37;;;;;;;7.30;3.38;;;;;;;-144.47;70.96;52808.44;4990355;28;20100;-67
2023/01/01 05:11:09;;;;;;;9.20;3.75;;;;;;;-144.47;71.24;52824.31;4991950;28;20054;-66
2023/01/01 05:13:39;;;;;;;10.13;3.45;;;;;;;-144.47;71.33;52824.31;4990213;28;20022;-67
2023/01/01 05:16:06;;;;;;;9.07;3.92;;;;;;;-144.47;71.64;52836.22;4991811;28;20026;-67
2023/01/01 05:18:33;;;;;;;14.48;3.78;;;;;;;-144.47;71.98;52828.28;4989231;28;20022;-67
2023/01/01 05:21:00;;;;;;;12.63;4.03;;;;;;;-144.47;72.10;52812.41;4991740;28;20117;-67
2023/01/01 05:23:26;;;;;;;6.70;3.42;;;;;;;-144.47;72.17;52832.25;4989423;28;20641;-66
2023/01/01 05:25:51;;;;;;;11.93;3.88;;;;;;;-144.47;71.93;52832.25;4990078;28;20416;-65
2023/01/01 05:28:17;;;;;;;10.30;3.40;;;;;;;-144.47;72.49;52848.16;4989562;28;20022;-66
2023/01/01 05:30:42;;;;;;;9.60;3.30;;;;;;;-144.47;72.00;52830.28;4990869;28;20499;-66
2023/01/01 05:33:07;;;;;;;8.85;3.63;;;;;;;-144.47;72.60;52832.25;4989645;28;20511;-67
2023/01/01 05:35:33;;;;;;;7.97;3.75;;;;;;;-144.47;72.23;52806.44;4990948;28;20396;-64
2023/01/01 05:37:59;;;;;;;9.77;4.05;;;;;;;-144.47;72.28;52848.16;4989637;28;20511;-67
2023/01/01 05:40:25;;;;;;;8.98;4.40;;;;;;;-144.47;72.62;52816.38;4991461;28;20071;-65
2023/01/01 05:42:50;;;;;;;9.10;4.13;;;;;;;-144.47;72.75;52852.13;4989945;28;20061;-63
2023/01/01 05:45:16;;;;;;;9.07;3.92;;;;;;;-144.47;72.18;52820.34;4990771;28;20105;-66
2023/01/01 05:47:41;;;;;;;7.22;3.45;;;;;;;-144.47;72.32;52842.19;4987602;28;20144;-66
2023/01/01 05:50:07;;;;;;;7.38;3.58;;;;;;;-144.47;72.06;52812.41;4990500;28;20033;-67
2023/01/01 05:52:32;;;;;;;8.07;3.35;;;;;;;-144.47;71.97;52832.25;4988421;28;20056;-65
2023/01/01 05:54:59;;;;;;;6.97;3.67;;;;;;;-144.47;72.05;52832.25;4990881;28;20078;-67
2023/01/01 05:57:27;;;;;;;6.30;3.40;;;;;;;-144.47;72.08;52844.19;4987786;28;20069;-66
2023/01/01 05:59:52;;;;;;;8.18;4.15;;;;;;;-144.47;71.99;52818.34;4990577;28;20022;-68
2023/01/01 06:02:17;;;;;;;8.02;3.30;;;;;;;-144.47;71.66;52840.19;4990127;28;20061;-67
2023/01/01 06:04:42;;;;;;;7.85;3.33;;;;;;;-144.47;71.46;52806.44;4990122;28;20038;-64
2023/01/01 06:07:08;;;;;;;11.98;3.55;;;;;;;-144.47;71.57;52830.28;4988497;28;20104;-68
2023/01/01 06:09:33;;;;;;;10.93;4.03;;;;;;;-144.47;71.11;52806.44;4990767;28;20081;-67
2023/01/01 06:11:58;;;;;;;10.55;3.83;;;;;;;-144.47;70.84;52810.41;4990611;28;20586;-66
2023/01/01 06:14:24;;;;;;;9.32;2.97;;;;;;;-144.47;70.52;52806.44;4990035;28;20392;-67
2023/01/01 06:16:49;;;;;;;7.53;3.22;;;;;;;-144.47;70.65;52834.25;4990444;28;20053;-65
2023/01/01 06:19:14;;;;;;;8.48;3.30;;;;;;;-144.47;70.69;52814.38;4990385;28;20053;-69
2023/01/01 06:21:40;;;;;;;6.10;3.05;;;;;;;-144.47;70.48;52842.19;4988305;28;20492;-65
2023/01/01 06:24:05;;;;;;;6.38;2.72;;;;;;;-144.47;70.41;52844.19;4989172;28;20173;-66
2023/01/01 06:26:32;;;;;;;8.00;3.30;;;;;;;-144.47;69.74;52834.25;4989581;28;20400;-65
2023/01/01 06:28:58;;;;;;;14.15;3.53;;;;;;;-144.47;69.57;52804.44;4987310;28;20108;-66
2023/01/01 06:31:24;;;;;;;9.48;3.47;;;;;;;-144.47;69.55;52814.38;4989132;28;20045;-65
2023/01/01 06:33:50;;;;;;;7.47;3.67;;;;;;;-144.47;69.64;52818.34;4989520;28;20023;-66
2023/01/01 06:36:18;;;;;;;6.32;2.72;;;;;;;-144.47;69.64;52808.44;4988778;28;20205;-66
2023/01/01 06:38:46;;;;;;;7.13;2.85;;;;;;;-144.47;69.57;52808.44;4989251;28;20041;-66
2023/01/01 06:41:14;;;;;;;10.98;2.97;;;;;;;-144.47;69.45;52808.44;4987379;28;20052;-65
2023/01/01 06:43:40;;;;;;;9.10;2.97;;;;;;;-144.47;69.90;52828.28;4988471;28;20027;-66
2023/01/01 06:46:05;;;;;;;5.57;2.80;;;;;;;-144.47;69.76;52806.44;4990006;28;20500;-67
2023/01/01 06:48:33;;;;;;;10.63;2.80;;;;;;;-144.47;69.76;52800.47;4988102;28;20033;-65
2023/01/01 06:51:11;;;;;;;6.80;2.60;;;;;;;-144.47;69.67;52828.28;4988120;28;20033;-68
2023/01/01 06:53:37;;;;;;;;;;;;;;;-144.47;70.12;52842.19;4988068;28;20070;-68
2023/01/01 06:56:03;;;;;;;8.02;3.22;;;;;;;-144.47;70.11;52834.25;4989585;28;19924;-65
2023/01/01 06:58:28;;;;;;;5.45;2.42;;;;;;;-144.47;69.74;52848.16;4987508;28;20040;-67
2023/01/01 07:01:04;;;;;;;5.95;2.90;;;;;;;-144.47;69.54;52826.31;4988936;28;20023;-67
2023/01/01 07:03:29;;;;;;;10.63;3.30;;;;;;;-144.47;69.39;52804.44;4975628;28;20880;-66
2023/01/01 07:05:55;;;;;;;12.30;3.00;;;;;;;-144.47;69.25;52806.44;4988233;28;20512;-64
2023/01/01 07:08:20;;;;;;;7.70;3.10;;;;;;;-144.47;69.29;52798.50;4987062;28;20582;-68
2023/01/01 07:10:45;;;;;;;8.02;3.13;;;;;;;-144.47;69.06;52828.28;4987666;28;20056;-65
2023/01/01 07:13:11;;;;;;;11.15;3.20;;;;;;;-144.47;69.14;52770.69;4988480;28;20172;-65
2023/01/01 07:15:36;;;;;;;6.65;2.65;;;;;;;-144.47;68.89;52830.28;4989017;28;20434;-67
2023/01/01 07:18:02;;;;;;;9.45;2.85;;;;;;;-144.47;68.80;52812.41;4988486;28;20042;-66
2023/01/01 07:20:27;;;;;;;6.40;3.10;;;;;;;-144.47;68.27;52786.56;4988583;28;20410;-65
2023/01/01 07:22:52;;;;;;;9.18;2.78;;;;;;;-144.47;68.06;52810.41;4988235;28;20030;-66
2023/01/01 07:25:18;;;;;;;9.35;3.28;;;;;;;-144.47;67.97;52818.34;4989627;28;20046;-67
2023/01/01 07:27:43;;;;;;;12.35;3.58;;;;;;;-144.47;67.90;52808.44;4989024;28;20037;-67
2023/01/01 07:30:09;;;;;;;8.80;2.83;;;;;;;-144.47;67.95;52810.41;4989719;28;20501;-65
2023/01/01 07:32:34;;;;;;;8.65;3.20;;;;;;;-144.47;68.23;52800.47;4989002;28;20088;-66
2023/01/01 07:35:00;;;;;;;7.93;3.47;;;;;;;-144.47;68.39;52826.31;4987752;28;20423;-66
2023/01/01 07:37:25;;;;;;;11.85;3.80;;;;;;;-144.47;68.30;52826.31;4987302;28;20520;-67
2023/01/01 07:39:51;;;;;;;8.38;3.17;;;;;;;-144.47;68.45;52816.38;4988105;28;20571;-68
2023/01/01 07:42:17;;;;;;;7.85;3.05;;;;;;;-144.47;68.35;52816.38;4987782;28;20018;-68
2023/01/01 07:44:42;;;;;;;11.65;3.15;;;;;;;-144.47;68.44;52814.38;4987968;28;20026;-67
2023/01/01 07:47:23;;;;;;;7.78;3.03;;;;;;;-144.47;68.59;52804.44;4987691;28;20478;-68
2023/01/01 07:49:49;;;;;;;10.18;3.15;;;;;;;-144.47;68.61;52824.31;4986307;28;20055;-68
2023/01/01 07:52:15;;;;;;;10.25;3.25;;;;;;;-144.47;68.64;52792.53;4987691;28;20053;-65
2023/01/01 07:54:40;;;;;;;10.52;3.33;;;;;;;-144.47;68.42;52804.44;4988346;28;20029;-68
2023/01/01 07:57:06;;;;;;;8.70;2.85;;;;;;;-144.47;68.04;52814.38;4986714;28;20023;-66
2023/01/01 07:59:31;;;;;;;9.27;3.80;;;;;;;-144.47;68.07;52818.34;4987496;28;20046;-67
2023/01/01 08:01:57;;;;;;;9.38;3.47;;;;;;;-144.47;67.62;52800.47;4978977;28;20023;-67
2023/01/01 08:04:22;;;;;;;7.40;3.63;;;;;;;-144.47;67.42;52810.41;4980437;28;20030;-65
2023/01/01 08:06:47;;;;;;;12.70;3.60;;;;;;;-144.47;66.93;52774.66;4986481;28;20073;-66
2023/01/01 08:09:13;;;;;;;8.50;3.33;;;;;;;-144.47;66.24;52800.47;4987622;28;20225;-67
2023/01/01 08:11:38;;;;;;;9.18;3.63;;;;;;;-144.47;65.99;52796.50;4987919;28;20069;-67
2023/01/01 08:14:03;;;;;;;8.90;3.67;;;;;;;-144.47;66.09;52770.69;4986622;28;20129;-67
2023/01/01 08:16:29;;;;;;;10.73;3.38;;;;;;;-144.47;65.74;52782.59;4986943;28;20102;-66
2023/01/01 08:18:54;;;;;;;7.07;3.30;;;;;;;-144.47;65.46;52794.53;4986159;28;20025;-64
2023/01/01 08:21:19;;;;;;;11.48;3.85;;;;;;;-144.47;64.99;52788.56;4986143;28;20030;-69
2023/01/01 08:23:45;;;;;;;10.77;3.47;;;;;;;-144.47;64.86;52786.56;4987720;28;20049;-66
2023/01/01 08:26:15;;;;;;;10.57;3.55;;;;;;;-144.47;64.43;52814.38;4987541;28;20098;-64
2023/01/01 08:28:41;;;;;;;8.35;3.95;;;;;;;-144.47;64.20;52810.41;4983839;28;20014;-64
2023/01/01 08:31:06;;;;;;;10.38;3.33;;;;;;;-144.47;63.79;52804.44;4986925;28;20034;-68
2023/01/01 08:33:31;;;;;;;10.80;3.70;;;;;;;-144.47;63.66;52778.63;4986736;28;20029;-64
2023/01/01 08:35:57;;;;;;;11.48;3.78;;;;;;;-144.47;63.63;52796.50;4987696;28;20108;-69
2023/01/01 08:38:23;;;;;;;10.40;3.65;;;;;;;-144.47;63.67;52804.44;4985946;28;20109;-68
2023/01/01 08:40:48;;;;;;;9.73;4.25;;;;;;;-144.47;63.48;52784.59;4987602;28;20137;-68
2023/01/01 08:43:13;;;;;;;11.20;4.43;;;;;;;-144.47;63.33;52806.44;4985359;28;20026;-64
2023/01/01 08:45:39;;;;;;;11.43;3.55;;;;;;;-144.47;63.14;52778.63;4988011;28;20114;-68
2023/01/01 08:48:04;;;;;;;10.35;4.15;;;;;;;-144.47;63.03;52768.69;4987606;28;20030;-68
2023/01/01 08:50:30;;;;;;;9.80;4.38;;;;;;;-144.47;62.95;52802.47;4986343;28;20027;-64
2023/01/01 08:52:57;;;;;;;8.52;3.45;;;;;;;-144.47;62.31;52774.66;4984312;28;20030;-68
2023/01/01 08:55:23;;;;;;;14.20;5.82;;;;;;;-144.47;62.03;52780.63;4987412;28;20027;-67
2023/01/01 08:57:48;;;;;;;9.25;3.97;;;;;;;-144.47;61.74;52788.56;4985703;28;20094;-69
2023/01/01 09:00:15;;;;;;;12.52;4.28;;;;;;;-144.47;61.62;52790.56;4984033;28;20118;-66
2023/01/01 09:02:41;;;;;;;12.88;4.13;;;;;;;-144.47;61.36;52784.59;4987014;28;20034;-65
2023/01/01 09:05:06;;;;;;;13.82;3.80;;;;;;;-144.47;61.02;52790.56;4986344;28;20635;-66
2023/01/01 09:07:32;;;;;;;12.43;4.13;;;;;;;-144.47;61.23;52778.63;4985294;28;20109;-66
2023/01/01 09:09:57;;;;;;;12.45;4.10;;;;;;;-144.47;61.24;52768.69;4985903;28;20368;-67
2023/01/01 09:12:23;;;;;;;9.80;4.03;;;;;;;-144.47;61.19;52782.59;4985998;28;20108;-66
2023/01/01 09:14:48;;;;;;;10.68;4.53;;;;;;;-144.47;61.00;52792.53;4986991;28;20172;-67
2023/01/01 09:17:13;;;;;;;9.48;4.15;;;;;;;-144.47;61.19;52780.63;4985121;28;20101;-66
2023/01/01 09:19:39;;;;;;;12.00;4.03;;;;;;;-144.47;61.19;52770.69;4986484;28;20034;-67
2023/01/01 09:22:09;;;;;;;11.93;4.13;;;;;;;-144.47;61.31;52774.66;4985639;28;20022;-67
2023/01/01 09:24:34;;;;;;;11.93;4.20;;;;;;;-144.47;61.47;52800.47;4987285;28;20045;-67
2023/01/01 09:26:59;;;;;;;14.95;4.22;;;;;;;-144.47;61.43;52782.59;4986441;28;20026;-66
2023/01/01 09:29:25;;;;;;;11.10;3.85;;;;;;;-144.47;61.79;52778.63;4986663;28;20106;-67
2023/01/01 09:31:50;;;;;;;10.07;4.18;;;;;;;-144.47;61.78;52780.63;4986125;28;20045;-65
2023/01/01 09:34:16;;;;;;;12.10;4.65;;;;;;;-144.47;61.87;52768.69;4990323;28;20034;-66
2023/01/01 09:36:42;;;;;;;14.57;4.18;;;;;;;-144.47;61.73;52778.63;4989391;28;20057;-66
2023/01/01 09:39:11;;;;;;;9.23;4.20;;;;;;;-144.47;61.29;52766.72;4990089;28;20445;-67
2023/01/01 09:41:49;;;;;;;9.65;4.07;;;;;;;-144.47;61.49;52774.66;4990032;28;20037;-67
2023/01/01 09:44:48;;;;;;;11.40;4.03;;;;;;;-144.47;61.31;52766.72;4983358;28;20031;-65
2023/01/01 09:47:50;;;;;;;12.02;3.53;;;;;;;-144.47;61.18;52760.75;4988189;28;20030;-69
2023/01/01 09:50:19;;;;;;;12.65;3.70;;;;;;;-144.47;61.12;52774.66;4980723;28;20042;-68
2023/01/01 09:52:58;;;;;;;12.23;4.57;;;;;;;-144.47;61.04;52758.78;4979930;28;20018;-66
2023/01/01 09:55:28;;;;;;;13.90;4.50;;;;;;;-144.47;61.05;52800.47;4984083;28;20034;-67
2023/01/01 09:57:55;;;;;;;11.30;4.20;;;;;;;-144.47;61.20;52764.72;4982430;28;20089;-67
2023/01/01 10:00:21;;;;;;;11.80;5.03;;;;;;;-144.47;61.21;52760.75;4982914;28;20126;-66
2023/01/01 10:02:46;;;;;;;10.20;4.65;;;;;;;-144.47;61.55;52786.56;4982422;28;20560;-65
2023/01/01 10:05:31;;;;;;;12.32;4.00;;;;;;;-144.47;61.73;52768.69;4980153;28;20329;-66
2023/01/01 10:08:24;;;;;;;11.25;4.53;;;;;;;-144.47;61.89;52772.69;4987789;28;20041;-64
2023/01/01 10:11:20;;;;;;;13.63;4.00;;;;;;;-144.47;62.11;52788.56;4981192;28;20268;-66
2023/01/01 10:13:47;;;;;;;11.45;4.70;;;;;;;-144.47;62.18;52774.66;4977440;28;20065;-66
2023/01/01 10:16:17;;;;;;;16.55;5.57;;;;;;;-144.47;62.23;52764.72;4978826;28;20066;-66
2023/01/01 10:18:45;;;;;;;10.88;4.45;;;;;;;-144.47;62.14;52796.50;4989864;28;20057;-67
2023/01/01 10:21:29;;;;;;;14.13;4.47;;;;;;;-144.47;61.96;52778.63;4990834;28;20101;-66
2023/01/01 10:24:03;;;;;;;10.68;4.93;;;;;;;-144.47;61.87;52784.59;4982005;28;20022;-68
2023/01/01 10:26:31;;;;;;;18.08;6.82;;;;;;;-144.47;61.96;52780.63;4990156;28;20140;-66
2023/01/01 10:29:04;;;;;;;21.58;9.73;;;;;;;-144.47;62.26;52760.75;4987449;28;20575;-67
2023/01/01 10:31:34;;;;;;;18.20;4.47;;;;;;;-144.47;61.14;52782.59;4980611;28;20038;-66
2023/01/01 10:34:10;;;;;;;12.25;4.05;;;;;;;-144.47;60.55;52752.81;4988952;28;20041;-66
2023/01/01 10:36:36;;;;;;;9.20;4.20;;;;;;;-144.47;60.60;52784.59;4986317;28;20030;-66
2023/01/01 10:39:01;;;;;;;14.25;4.53;;;;;;;-144.47;60.23;52764.72;4987337;28;20595;-66
2023/01/01 10:41:27;;;;;;;10.35;4.07;;;;;;;-144.47;60.12;52727.00;4988456;28;20114;-68
2023/01/01 10:43:52;;;;;;;8.35;3.60;;;;;;;-144.47;60.27;52762.75;4988973;28;20029;-67
2023/01/01 10:46:23;;;;;;;15.43;4.32;;;;;;;-144.47;60.00;52770.69;4989733;28;20038;-66
2023/01/01 10:49:15;;;;;;;13.15;3.63;;;;;;;-144.47;59.72;52768.69;4989210;28;20480;-66
2023/01/01 10:51:44;;;;;;;11.52;4.25;;;;;;;-144.47;59.53;52782.59;4984902;28;20045;-65
2023/01/01 10:54:28;;;;;;;;;;;;;;;-144.47;59.15;52776.66;4984129;28;20026;-67
2023/01/01 10:56:53;;;;;;;12.05;4.20;;;;;;;-144.47;58.88;52772.69;4988472;28;19945;-67
2023/01/01 10:59:34;;;;;;;9.90;3.95;;;;;;;-144.47;58.63;52764.72;4988441;28;20117;-66
2023/01/01 11:02:14;;;;;;;8.13;3.30;;;;;;;-144.47;58.50;52738.91;4988874;28;20041;-65
2023/01/01 11:04:40;;;;;;;11.70;3.53;;;;;;;-144.47;58.40;52770.69;4985565;28;20014;-66
2023/01/01 11:07:06;;;;;;;13.35;5.25;;;;;;;-144.47;58.51;52744.88;4990149;28;20132;-65
2023/01/01 11:09:35;;;;;;;10.63;3.75;;;;;;;-144.47;58.43;52786.56;4990976;28;20026;-64
2023/01/01 11:12:03;;;;;;;9.30;3.50;;;;;;;-144.47;58.45;52762.75;4989653;28;20026;-67
2023/01/01 11:14:40;;;;;;;10.30;3.85;;;;;;;-144.47;58.56;52754.81;4989014;28;20030;-67
2023/01/01 11:17:07;;;;;;;6.90;3.15;;;;;;;-144.47;58.50;52782.59;4989367;28;20033;-66
2023/01/01 11:19:37;;;;;;;9.43;4.20;;;;;;;-144.47;58.70;52748.84;4988954;28;20022;-67
2023/01/01 11:22:04;;;;;;;8.07;3.75;;;;;;;-144.47;58.76;52728.97;4987718;28;20076;-68
2023/01/01 11:24:34;;;;;;;15.20;3.53;;;;;;;-144.47;58.78;52756.78;4987875;28;20146;-66
2023/01/01 11:27:21;;;;;;;7.88;3.50;;;;;;;-144.47;58.66;52788.56;4989044;28;20045;-66
2023/01/01 11:29:47;;;;;;;10.07;3.33;;;;;;;-144.47;58.67;52780.63;4987695;28;20032;-66